sensor_id;sensor_type;location;lat;lon;timestamp;P1;durP1;ratioP1;P2;durP2;ratioP2
5752;SDS011;2901;42.140;24.760;2024-02-23T00:01:25;16.83;;;15.07;;
5752;SDS011;2901;42.140;24.760;2024-02-23T00:03:50;18.00;;;14.67;;
5752;SDS011;2901;42.140;24.760;2024-02-23T00:06:16;17.57;;;14.60;;
5752;SDS011;2901;42.140;24.760;2024-02-23T00:08:42;19.03;;;14.83;;
5752;SDS011;2901;42.140;24.760;2024-02-23T00:11:08;15.73;;;14.07;;
5752;SDS011;2901;42.140;24.760;2024-02-23T00:13:33;26.80;;;16.57;;
5752;SDS011;2901;42.140;24.760;2024-02-23T00:15:58;19.10;;;14.97;;
5752;SDS011;2901;42.140;24.760;2024-02-23T00:18:24;16.07;;;14.50;;
5752;SDS011;2901;42.140;24.760;2024-02-23T00:20:49;19.57;;;14.40;;
5752;SDS011;2901;42.140;24.760;2024-02-23T00:23:15;18.50;;;14.90;;
5752;SDS011;2901;42.140;24.760;2024-02-23T00:25:41;19.83;;;14.40;;
5752;SDS011;2901;42.140;24.760;2024-02-23T00:28:06;19.90;;;15.60;;
5752;SDS011;2901;42.140;24.760;2024-02-23T00:30:32;19.30;;;15.73;;
5752;SDS011;2901;42.140;24.760;2024-02-23T00:32:58;22.70;;;16.10;;
5752;SDS011;2901;42.140;24.760;2024-02-23T00:35:23;17.77;;;14.73;;
5752;SDS011;2901;42.140;24.760;2024-02-23T00:37:48;25.37;;;15.77;;
5752;SDS011;2901;42.140;24.760;2024-02-23T00:40:14;20.00;;;15.27;;
5752;SDS011;2901;42.140;24.760;2024-02-23T00:42:40;20.60;;;16.17;;
5752;SDS011;2901;42.140;24.760;2024-02-23T00:45:06;17.57;;;15.50;;
5752;SDS011;2901;42.140;24.760;2024-02-23T00:47:32;20.73;;;15.83;;
5752;SDS011;2901;42.140;24.760;2024-02-23T00:49:57;19.90;;;16.10;;
5752;SDS011;2901;42.140;24.760;2024-02-23T00:52:22;20.10;;;16.00;;
5752;SDS011;2901;42.140;24.760;2024-02-23T00:54:48;21.47;;;16.50;;
5752;SDS011;2901;42.140;24.760;2024-02-23T00:57:13;20.43;;;16.30;;
5752;SDS011;2901;42.140;24.760;2024-02-23T00:59:39;22.93;;;16.37;;
5752;SDS011;2901;42.140;24.760;2024-02-23T01:02:04;23.67;;;16.90;;
5752;SDS011;2901;42.140;24.760;2024-02-23T01:04:30;21.47;;;16.23;;
5752;SDS011;2901;42.140;24.760;2024-02-23T01:06:55;22.50;;;16.57;;
5752;SDS011;2901;42.140;24.760;2024-02-23T01:09:22;19.77;;;16.33;;
5752;SDS011;2901;42.140;24.760;2024-02-23T01:11:48;19.00;;;14.77;;
5752;SDS011;2901;42.140;24.760;2024-02-23T01:14:13;22.97;;;15.80;;
5752;SDS011;2901;42.140;24.760;2024-02-23T01:16:39;23.43;;;17.10;;
5752;SDS011;2901;42.140;24.760;2024-02-23T01:19:04;27.10;;;17.70;;
5752;SDS011;2901;42.140;24.760;2024-02-23T01:21:29;26.50;;;16.60;;
5752;SDS011;2901;42.140;24.760;2024-02-23T01:23:55;25.00;;;16.57;;
5752;SDS011;2901;42.140;24.760;2024-02-23T01:26:22;22.13;;;16.20;;
5752;SDS011;2901;42.140;24.760;2024-02-23T01:28:48;25.17;;;17.77;;
5752;SDS011;2901;42.140;24.760;2024-02-23T01:31:13;19.77;;;16.03;;
5752;SDS011;2901;42.140;24.760;2024-02-23T01:33:39;19.93;;;15.67;;
5752;SDS011;2901;42.140;24.760;2024-02-23T01:36:07;20.27;;;16.07;;
5752;SDS011;2901;42.140;24.760;2024-02-23T01:38:33;21.80;;;16.70;;
5752;SDS011;2901;42.140;24.760;2024-02-23T01:40:59;19.47;;;16.03;;
5752;SDS011;2901;42.140;24.760;2024-02-23T01:43:24;23.93;;;17.13;;
5752;SDS011;2901;42.140;24.760;2024-02-23T01:45:50;22.00;;;17.07;;
5752;SDS011;2901;42.140;24.760;2024-02-23T01:48:16;24.40;;;17.67;;
5752;SDS011;2901;42.140;24.760;2024-02-23T01:50:43;24.73;;;16.60;;
5752;SDS011;2901;42.140;24.760;2024-02-23T01:53:09;23.67;;;16.27;;
5752;SDS011;2901;42.140;24.760;2024-02-23T01:55:37;18.63;;;16.13;;
5752;SDS011;2901;42.140;24.760;2024-02-23T01:58:06;20.73;;;16.50;;
5752;SDS011;2901;42.140;24.760;2024-02-23T02:00:32;20.90;;;16.03;;
5752;SDS011;2901;42.140;24.760;2024-02-23T02:02:57;18.27;;;15.27;;
5752;SDS011;2901;42.140;24.760;2024-02-23T02:05:23;21.93;;;16.27;;
5752;SDS011;2901;42.140;24.760;2024-02-23T02:07:49;21.60;;;16.97;;
5752;SDS011;2901;42.140;24.760;2024-02-23T02:10:20;20.97;;;16.37;;
5752;SDS011;2901;42.140;24.760;2024-02-23T02:12:46;20.80;;;16.40;;
5752;SDS011;2901;42.140;24.760;2024-02-23T02:15:11;20.27;;;16.37;;
5752;SDS011;2901;42.140;24.760;2024-02-23T02:17:37;19.57;;;16.00;;
5752;SDS011;2901;42.140;24.760;2024-02-23T02:20:02;19.57;;;15.83;;
5752;SDS011;2901;42.140;24.760;2024-02-23T02:22:35;20.30;;;16.40;;
5752;SDS011;2901;42.140;24.760;2024-02-23T02:25:00;19.50;;;16.47;;
5752;SDS011;2901;42.140;24.760;2024-02-23T02:27:26;17.57;;;15.13;;
5752;SDS011;2901;42.140;24.760;2024-02-23T02:29:51;21.13;;;16.73;;
5752;SDS011;2901;42.140;24.760;2024-02-23T02:32:17;21.57;;;16.87;;
5752;SDS011;2901;42.140;24.760;2024-02-23T02:34:42;17.73;;;15.37;;
5752;SDS011;2901;42.140;24.760;2024-02-23T02:37:08;22.13;;;16.67;;
5752;SDS011;2901;42.140;24.760;2024-02-23T02:39:33;20.30;;;16.67;;
5752;SDS011;2901;42.140;24.760;2024-02-23T02:41:59;22.53;;;17.53;;
5752;SDS011;2901;42.140;24.760;2024-02-23T02:44:24;21.83;;;16.10;;
5752;SDS011;2901;42.140;24.760;2024-02-23T02:46:51;18.47;;;15.73;;
5752;SDS011;2901;42.140;24.760;2024-02-23T02:49:17;19.80;;;15.53;;
5752;SDS011;2901;42.140;24.760;2024-02-23T02:51:42;19.87;;;15.90;;
5752;SDS011;2901;42.140;24.760;2024-02-23T02:54:07;20.63;;;16.57;;
5752;SDS011;2901;42.140;24.760;2024-02-23T02:56:33;22.27;;;17.77;;
5752;SDS011;2901;42.140;24.760;2024-02-23T02:58:58;23.23;;;17.27;;
5752;SDS011;2901;42.140;24.760;2024-02-23T03:01:24;24.57;;;17.07;;
5752;SDS011;2901;42.140;24.760;2024-02-23T03:03:49;26.77;;;17.33;;
5752;SDS011;2901;42.140;24.760;2024-02-23T03:06:15;26.67;;;15.77;;
5752;SDS011;2901;42.140;24.760;2024-02-23T03:08:43;25.50;;;16.73;;
5752;SDS011;2901;42.140;24.760;2024-02-23T03:11:08;19.03;;;15.47;;
5752;SDS011;2901;42.140;24.760;2024-02-23T03:13:34;15.53;;;13.33;;
5752;SDS011;2901;42.140;24.760;2024-02-23T03:15:59;17.80;;;13.10;;
5752;SDS011;2901;42.140;24.760;2024-02-23T03:18:25;17.77;;;14.27;;
5752;SDS011;2901;42.140;24.760;2024-02-23T03:20:52;14.13;;;12.67;;
5752;SDS011;2901;42.140;24.760;2024-02-23T03:23:18;21.97;;;13.57;;
5752;SDS011;2901;42.140;24.760;2024-02-23T03:25:43;16.73;;;13.83;;
5752;SDS011;2901;42.140;24.760;2024-02-23T03:28:08;17.33;;;13.63;;
5752;SDS011;2901;42.140;24.760;2024-02-23T03:30:34;16.43;;;13.33;;
5752;SDS011;2901;42.140;24.760;2024-02-23T03:32:59;18.77;;;13.67;;
5752;SDS011;2901;42.140;24.760;2024-02-23T03:35:24;21.80;;;14.37;;
5752;SDS011;2901;42.140;24.760;2024-02-23T03:37:50;17.63;;;14.53;;
5752;SDS011;2901;42.140;24.760;2024-02-23T03:40:15;22.20;;;14.80;;
5752;SDS011;2901;42.140;24.760;2024-02-23T03:42:43;16.17;;;14.37;;
5752;SDS011;2901;42.140;24.760;2024-02-23T03:45:08;23.13;;;15.10;;
5752;SDS011;2901;42.140;24.760;2024-02-23T03:47:34;20.17;;;14.63;;
5752;SDS011;2901;42.140;24.760;2024-02-23T03:49:59;21.80;;;14.97;;
5752;SDS011;2901;42.140;24.760;2024-02-23T03:52:25;19.47;;;13.47;;
5752;SDS011;2901;42.140;24.760;2024-02-23T03:54:50;27.13;;;14.73;;
5752;SDS011;2901;42.140;24.760;2024-02-23T03:57:17;23.57;;;14.97;;
5752;SDS011;2901;42.140;24.760;2024-02-23T03:59:51;17.77;;;15.40;;
5752;SDS011;2901;42.140;24.760;2024-02-23T04:02:18;19.80;;;14.60;;
5752;SDS011;2901;42.140;24.760;2024-02-23T04:04:44;18.20;;;13.93;;
5752;SDS011;2901;42.140;24.760;2024-02-23T04:07:09;20.57;;;15.73;;
5752;SDS011;2901;42.140;24.760;2024-02-23T04:09:34;20.50;;;14.53;;
5752;SDS011;2901;42.140;24.760;2024-02-23T04:12:00;22.50;;;15.37;;
5752;SDS011;2901;42.140;24.760;2024-02-23T04:14:26;23.50;;;15.53;;
5752;SDS011;2901;42.140;24.760;2024-02-23T04:16:51;19.93;;;15.50;;
5752;SDS011;2901;42.140;24.760;2024-02-23T04:19:16;18.73;;;14.70;;
5752;SDS011;2901;42.140;24.760;2024-02-23T04:21:42;25.33;;;14.67;;
5752;SDS011;2901;42.140;24.760;2024-02-23T04:24:07;22.77;;;14.57;;
5752;SDS011;2901;42.140;24.760;2024-02-23T04:26:33;24.50;;;15.50;;
5752;SDS011;2901;42.140;24.760;2024-02-23T04:28:59;17.90;;;14.73;;
5752;SDS011;2901;42.140;24.760;2024-02-23T04:31:24;18.33;;;14.73;;
5752;SDS011;2901;42.140;24.760;2024-02-23T04:33:49;19.13;;;14.60;;
5752;SDS011;2901;42.140;24.760;2024-02-23T04:36:18;17.87;;;13.73;;
5752;SDS011;2901;42.140;24.760;2024-02-23T04:38:45;17.20;;;14.63;;
5752;SDS011;2901;42.140;24.760;2024-02-23T04:41:10;19.97;;;14.90;;
5752;SDS011;2901;42.140;24.760;2024-02-23T04:43:36;22.60;;;15.33;;
5752;SDS011;2901;42.140;24.760;2024-02-23T04:46:01;24.73;;;15.40;;
5752;SDS011;2901;42.140;24.760;2024-02-23T04:48:27;28.27;;;16.43;;
5752;SDS011;2901;42.140;24.760;2024-02-23T04:50:52;21.47;;;15.93;;
5752;SDS011;2901;42.140;24.760;2024-02-23T04:53:18;27.03;;;17.13;;
5752;SDS011;2901;42.140;24.760;2024-02-23T04:55:44;28.47;;;18.30;;
5752;SDS011;2901;42.140;24.760;2024-02-23T04:58:09;28.97;;;17.30;;
5752;SDS011;2901;42.140;24.760;2024-02-23T05:00:37;20.90;;;15.60;;
5752;SDS011;2901;42.140;24.760;2024-02-23T05:03:02;24.30;;;17.33;;
5752;SDS011;2901;42.140;24.760;2024-02-23T05:05:31;23.47;;;17.17;;
5752;SDS011;2901;42.140;24.760;2024-02-23T05:07:57;26.37;;;17.23;;
5752;SDS011;2901;42.140;24.760;2024-02-23T05:10:23;27.33;;;18.10;;
5752;SDS011;2901;42.140;24.760;2024-02-23T05:12:49;22.03;;;17.17;;
5752;SDS011;2901;42.140;24.760;2024-02-23T05:15:14;29.67;;;19.17;;
5752;SDS011;2901;42.140;24.760;2024-02-23T05:17:40;26.20;;;18.07;;
5752;SDS011;2901;42.140;24.760;2024-02-23T05:20:06;30.90;;;18.13;;
5752;SDS011;2901;42.140;24.760;2024-02-23T05:22:35;28.00;;;17.23;;
5752;SDS011;2901;42.140;24.760;2024-02-23T05:25:01;32.17;;;18.33;;
5752;SDS011;2901;42.140;24.760;2024-02-23T05:27:26;24.83;;;18.07;;
5752;SDS011;2901;42.140;24.760;2024-02-23T05:29:52;30.37;;;17.43;;
5752;SDS011;2901;42.140;24.760;2024-02-23T05:32:18;28.67;;;17.53;;
5752;SDS011;2901;42.140;24.760;2024-02-23T05:34:44;22.20;;;16.40;;
5752;SDS011;2901;42.140;24.760;2024-02-23T05:37:09;27.17;;;18.57;;
5752;SDS011;2901;42.140;24.760;2024-02-23T05:39:35;23.27;;;16.90;;
5752;SDS011;2901;42.140;24.760;2024-02-23T05:42:02;24.73;;;17.13;;
5752;SDS011;2901;42.140;24.760;2024-02-23T05:44:28;20.03;;;15.73;;
5752;SDS011;2901;42.140;24.760;2024-02-23T05:46:54;24.00;;;16.80;;
5752;SDS011;2901;42.140;24.760;2024-02-23T05:49:19;24.97;;;16.00;;
5752;SDS011;2901;42.140;24.760;2024-02-23T05:51:45;28.40;;;16.67;;
5752;SDS011;2901;42.140;24.760;2024-02-23T05:54:10;19.53;;;14.70;;
5752;SDS011;2901;42.140;24.760;2024-02-23T05:56:35;21.67;;;15.53;;
5752;SDS011;2901;42.140;24.760;2024-02-23T05:59:02;18.33;;;14.50;;
5752;SDS011;2901;42.140;24.760;2024-02-23T06:01:27;21.37;;;15.97;;
5752;SDS011;2901;42.140;24.760;2024-02-23T06:03:53;22.63;;;15.60;;
5752;SDS011;2901;42.140;24.760;2024-02-23T06:06:20;33.97;;;16.40;;
5752;SDS011;2901;42.140;24.760;2024-02-23T06:08:45;37.27;;;17.17;;
5752;SDS011;2901;42.140;24.760;2024-02-23T06:11:11;18.77;;;15.03;;
5752;SDS011;2901;42.140;24.760;2024-02-23T06:13:36;21.97;;;14.93;;
5752;SDS011;2901;42.140;24.760;2024-02-23T06:16:02;22.37;;;14.87;;
5752;SDS011;2901;42.140;24.760;2024-02-23T06:18:28;16.03;;;13.93;;
5752;SDS011;2901;42.140;24.760;2024-02-23T06:20:54;19.27;;;13.83;;
5752;SDS011;2901;42.140;24.760;2024-02-23T06:23:19;22.60;;;15.73;;
5752;SDS011;2901;42.140;24.760;2024-02-23T06:25:47;18.50;;;15.57;;
5752;SDS011;2901;42.140;24.760;2024-02-23T06:28:12;16.67;;;13.40;;
5752;SDS011;2901;42.140;24.760;2024-02-23T06:30:37;17.57;;;13.03;;
5752;SDS011;2901;42.140;24.760;2024-02-23T06:33:03;19.50;;;14.87;;
5752;SDS011;2901;42.140;24.760;2024-02-23T06:35:29;16.73;;;13.90;;
5752;SDS011;2901;42.140;24.760;2024-02-23T06:37:54;17.97;;;14.00;;
5752;SDS011;2901;42.140;24.760;2024-02-23T06:40:20;18.50;;;13.03;;
5752;SDS011;2901;42.140;24.760;2024-02-23T06:42:45;20.57;;;13.23;;
5752;SDS011;2901;42.140;24.760;2024-02-23T06:45:11;20.27;;;14.97;;
5752;SDS011;2901;42.140;24.760;2024-02-23T06:47:36;16.40;;;14.50;;
5752;SDS011;2901;42.140;24.760;2024-02-23T06:50:04;23.40;;;15.40;;
5752;SDS011;2901;42.140;24.760;2024-02-23T06:52:30;20.67;;;14.80;;
5752;SDS011;2901;42.140;24.760;2024-02-23T06:54:56;24.97;;;15.37;;
5752;SDS011;2901;42.140;24.760;2024-02-23T06:57:22;17.17;;;15.20;;
5752;SDS011;2901;42.140;24.760;2024-02-23T06:59:50;22.13;;;14.73;;
5752;SDS011;2901;42.140;24.760;2024-02-23T07:02:16;20.50;;;15.37;;
5752;SDS011;2901;42.140;24.760;2024-02-23T07:04:41;34.50;;;15.83;;
5752;SDS011;2901;42.140;24.760;2024-02-23T07:07:06;24.87;;;16.83;;
5752;SDS011;2901;42.140;24.760;2024-02-23T07:09:33;23.13;;;15.10;;
5752;SDS011;2901;42.140;24.760;2024-02-23T07:11:59;23.23;;;16.27;;
5752;SDS011;2901;42.140;24.760;2024-02-23T07:14:25;26.80;;;15.80;;
5752;SDS011;2901;42.140;24.760;2024-02-23T07:16:50;23.07;;;16.30;;
5752;SDS011;2901;42.140;24.760;2024-02-23T07:19:17;26.73;;;16.43;;
5752;SDS011;2901;42.140;24.760;2024-02-23T07:21:42;25.50;;;15.13;;
5752;SDS011;2901;42.140;24.760;2024-02-23T07:24:08;22.73;;;15.68;;
5752;SDS011;2901;42.140;24.760;2024-02-23T07:26:33;25.43;;;15.97;;
5752;SDS011;2901;42.140;24.760;2024-02-23T07:28:59;28.43;;;16.63;;
5752;SDS011;2901;42.140;24.760;2024-02-23T07:31:24;28.83;;;16.20;;
5752;SDS011;2901;42.140;24.760;2024-02-23T07:33:50;24.83;;;16.85;;
5752;SDS011;2901;42.140;24.760;2024-02-23T07:36:16;26.77;;;18.23;;
5752;SDS011;2901;42.140;24.760;2024-02-23T07:38:42;29.25;;;16.45;;
5752;SDS011;2901;42.140;24.760;2024-02-23T07:41:09;37.30;;;17.98;;
5752;SDS011;2901;42.140;24.760;2024-02-23T07:43:35;22.40;;;15.82;;
5752;SDS011;2901;42.140;24.760;2024-02-23T07:46:01;37.65;;;17.33;;
5752;SDS011;2901;42.140;24.760;2024-02-23T07:48:27;23.10;;;16.02;;
5752;SDS011;2901;42.140;24.760;2024-02-23T07:50:53;22.73;;;16.27;;
5752;SDS011;2901;42.140;24.760;2024-02-23T07:53:18;32.50;;;16.48;;
5752;SDS011;2901;42.140;24.760;2024-02-23T07:55:43;27.98;;;20.30;;
5752;SDS011;2901;42.140;24.760;2024-02-23T07:58:09;34.35;;;19.80;;
5752;SDS011;2901;42.140;24.760;2024-02-23T08:00:34;28.58;;;18.58;;
5752;SDS011;2901;42.140;24.760;2024-02-23T08:03:03;18.42;;;14.45;;
5752;SDS011;2901;42.140;24.760;2024-02-23T08:05:28;20.60;;;15.10;;
5752;SDS011;2901;42.140;24.760;2024-02-23T08:07:54;16.50;;;14.52;;
5752;SDS011;2901;42.140;24.760;2024-02-23T08:10:19;15.30;;;13.68;;
5752;SDS011;2901;42.140;24.760;2024-02-23T08:12:45;17.33;;;14.07;;
5752;SDS011;2901;42.140;24.760;2024-02-23T08:15:11;16.83;;;13.65;;
5752;SDS011;2901;42.140;24.760;2024-02-23T08:17:37;15.50;;;12.38;;
5752;SDS011;2901;42.140;24.760;2024-02-23T08:20:02;21.98;;;13.75;;
5752;SDS011;2901;42.140;24.760;2024-02-23T08:22:29;14.95;;;13.20;;
5752;SDS011;2901;42.140;24.760;2024-02-23T08:24:54;13.98;;;12.68;;
5752;SDS011;2901;42.140;24.760;2024-02-23T08:27:20;15.88;;;13.85;;
5752;SDS011;2901;42.140;24.760;2024-02-23T08:29:45;15.38;;;13.60;;
5752;SDS011;2901;42.140;24.760;2024-02-23T08:32:10;13.80;;;12.48;;
5752;SDS011;2901;42.140;24.760;2024-02-23T08:34:36;15.90;;;13.55;;
5752;SDS011;2901;42.140;24.760;2024-02-23T08:37:01;17.65;;;14.00;;
5752;SDS011;2901;42.140;24.760;2024-02-23T08:39:27;19.45;;;15.23;;
5752;SDS011;2901;42.140;24.760;2024-02-23T08:41:53;21.00;;;15.23;;
5752;SDS011;2901;42.140;24.760;2024-02-23T08:44:19;17.00;;;14.82;;
5752;SDS011;2901;42.140;24.760;2024-02-23T08:46:45;27.23;;;14.90;;
5752;SDS011;2901;42.140;24.760;2024-02-23T08:49:10;16.13;;;14.18;;
5752;SDS011;2901;42.140;24.760;2024-02-23T08:51:36;18.77;;;14.73;;
5752;SDS011;2901;42.140;24.760;2024-02-23T08:54:02;15.95;;;14.40;;
5752;SDS011;2901;42.140;24.760;2024-02-23T08:56:30;14.90;;;13.52;;
5752;SDS011;2901;42.140;24.760;2024-02-23T08:58:56;15.73;;;13.40;;
5752;SDS011;2901;42.140;24.760;2024-02-23T09:01:22;18.20;;;14.48;;
5752;SDS011;2901;42.140;24.760;2024-02-23T09:03:47;16.40;;;13.43;;
5752;SDS011;2901;42.140;24.760;2024-02-23T09:06:13;16.13;;;14.43;;
5752;SDS011;2901;42.140;24.760;2024-02-23T09:08:38;14.00;;;12.73;;
5752;SDS011;2901;42.140;24.760;2024-02-23T09:11:04;16.67;;;14.25;;
5752;SDS011;2901;42.140;24.760;2024-02-23T09:13:29;16.30;;;14.20;;
5752;SDS011;2901;42.140;24.760;2024-02-23T09:15:55;16.27;;;14.43;;
5752;SDS011;2901;42.140;24.760;2024-02-23T09:18:20;18.88;;;13.93;;
5752;SDS011;2901;42.140;24.760;2024-02-23T09:20:46;15.93;;;14.25;;
5752;SDS011;2901;42.140;24.760;2024-02-23T09:23:11;17.40;;;13.68;;
5752;SDS011;2901;42.140;24.760;2024-02-23T09:25:37;12.82;;;11.73;;
5752;SDS011;2901;42.140;24.760;2024-02-23T09:28:04;14.25;;;13.05;;
5752;SDS011;2901;42.140;24.760;2024-02-23T09:30:30;20.33;;;12.80;;
5752;SDS011;2901;42.140;24.760;2024-02-23T09:32:55;15.45;;;13.90;;
5752;SDS011;2901;42.140;24.760;2024-02-23T09:35:20;15.60;;;14.10;;
5752;SDS011;2901;42.140;24.760;2024-02-23T09:37:46;18.20;;;14.73;;
5752;SDS011;2901;42.140;24.760;2024-02-23T09:40:11;14.73;;;13.20;;
5752;SDS011;2901;42.140;24.760;2024-02-23T09:42:37;22.80;;;15.05;;
5752;SDS011;2901;42.140;24.760;2024-02-23T09:45:04;16.15;;;14.50;;
5752;SDS011;2901;42.140;24.760;2024-02-23T09:47:32;15.30;;;13.73;;
5752;SDS011;2901;42.140;24.760;2024-02-23T09:49:57;16.35;;;13.68;;
5752;SDS011;2901;42.140;24.760;2024-02-23T09:52:25;16.42;;;14.80;;
5752;SDS011;2901;42.140;24.760;2024-02-23T09:54:53;19.25;;;14.50;;
5752;SDS011;2901;42.140;24.760;2024-02-23T09:57:20;15.30;;;13.80;;
5752;SDS011;2901;42.140;24.760;2024-02-23T09:59:46;18.63;;;14.23;;
5752;SDS011;2901;42.140;24.760;2024-02-23T10:02:14;16.88;;;14.02;;
5752;SDS011;2901;42.140;24.760;2024-02-23T10:04:41;16.15;;;14.10;;
5752;SDS011;2901;42.140;24.760;2024-02-23T10:07:13;14.20;;;12.80;;
5752;SDS011;2901;42.140;24.760;2024-02-23T10:09:40;13.80;;;12.70;;
5752;SDS011;2901;42.140;24.760;2024-02-23T10:12:06;14.00;;;12.75;;
5752;SDS011;2901;42.140;24.760;2024-02-23T10:14:32;13.60;;;12.48;;
5752;SDS011;2901;42.140;24.760;2024-02-23T10:16:57;17.65;;;12.20;;
5752;SDS011;2901;42.140;24.760;2024-02-23T10:19:23;14.10;;;12.55;;
5752;SDS011;2901;42.140;24.760;2024-02-23T10:21:53;12.98;;;11.80;;
5752;SDS011;2901;42.140;24.760;2024-02-23T10:24:19;13.70;;;12.40;;
5752;SDS011;2901;42.140;24.760;2024-02-23T10:26:45;15.63;;;12.98;;
5752;SDS011;2901;42.140;24.760;2024-02-23T10:29:10;14.77;;;13.35;;
5752;SDS011;2901;42.140;24.760;2024-02-23T10:31:36;13.43;;;12.30;;
5752;SDS011;2901;42.140;24.760;2024-02-23T10:34:04;17.00;;;13.45;;
5752;SDS011;2901;42.140;24.760;2024-02-23T10:36:36;21.17;;;13.85;;
5752;SDS011;2901;42.140;24.760;2024-02-23T10:39:02;13.35;;;11.88;;
5752;SDS011;2901;42.140;24.760;2024-02-23T10:41:30;14.90;;;13.20;;
5752;SDS011;2901;42.140;24.760;2024-02-23T10:43:59;17.83;;;12.88;;
5752;SDS011;2901;42.140;24.760;2024-02-23T10:46:26;11.68;;;10.68;;
5752;SDS011;2901;42.140;24.760;2024-02-23T10:48:52;11.88;;;10.98;;
5752;SDS011;2901;42.140;24.760;2024-02-23T10:51:21;16.75;;;11.68;;
5752;SDS011;2901;42.140;24.760;2024-02-23T10:53:48;14.95;;;11.15;;
5752;SDS011;2901;42.140;24.760;2024-02-23T10:56:14;13.48;;;11.95;;
5752;SDS011;2901;42.140;24.760;2024-02-23T10:58:40;12.30;;;11.30;;
5752;SDS011;2901;42.140;24.760;2024-02-23T11:01:06;13.43;;;12.20;;
5752;SDS011;2901;42.140;24.760;2024-02-23T11:03:34;13.10;;;11.82;;
5752;SDS011;2901;42.140;24.760;2024-02-23T11:06:02;12.93;;;11.27;;
5752;SDS011;2901;42.140;24.760;2024-02-23T11:08:32;12.85;;;11.82;;
5752;SDS011;2901;42.140;24.760;2024-02-23T11:11:06;13.32;;;12.18;;
5752;SDS011;2901;42.140;24.760;2024-02-23T11:13:35;13.07;;;11.93;;
5752;SDS011;2901;42.140;24.760;2024-02-23T11:16:05;11.73;;;10.93;;
5752;SDS011;2901;42.140;24.760;2024-02-23T11:18:34;12.27;;;10.98;;
5752;SDS011;2901;42.140;24.760;2024-02-23T11:21:01;12.50;;;11.35;;
5752;SDS011;2901;42.140;24.760;2024-02-23T11:26:16;13.35;;;12.15;;
5752;SDS011;2901;42.140;24.760;2024-02-23T11:28:42;13.50;;;12.32;;
5752;SDS011;2901;42.140;24.760;2024-02-23T11:31:21;13.00;;;11.82;;
5752;SDS011;2901;42.140;24.760;2024-02-23T11:33:49;15.02;;;11.77;;
5752;SDS011;2901;42.140;24.760;2024-02-23T11:39:00;10.30;;;9.48;;
5752;SDS011;2901;42.140;24.760;2024-02-23T11:41:27;10.27;;;9.50;;
5752;SDS011;2901;42.140;24.760;2024-02-23T11:43:53;11.25;;;10.30;;
5752;SDS011;2901;42.140;24.760;2024-02-23T11:46:25;12.13;;;11.13;;
5752;SDS011;2901;42.140;24.760;2024-02-23T11:48:51;11.75;;;10.75;;
5752;SDS011;2901;42.140;24.760;2024-02-23T11:51:22;11.25;;;10.45;;
5752;SDS011;2901;42.140;24.760;2024-02-23T11:53:51;12.00;;;10.90;;
5752;SDS011;2901;42.140;24.760;2024-02-23T11:56:18;11.05;;;10.27;;
5752;SDS011;2901;42.140;24.760;2024-02-23T11:58:44;12.10;;;11.13;;
5752;SDS011;2901;42.140;24.760;2024-02-23T12:01:09;12.18;;;11.20;;
5752;SDS011;2901;42.140;24.760;2024-02-23T12:03:35;11.43;;;10.52;;
5752;SDS011;2901;42.140;24.760;2024-02-23T12:06:00;11.18;;;10.02;;
5752;SDS011;2901;42.140;24.760;2024-02-23T12:08:26;11.77;;;10.73;;
5752;SDS011;2901;42.140;24.760;2024-02-23T12:10:54;12.25;;;11.32;;
5752;SDS011;2901;42.140;24.760;2024-02-23T12:13:20;9.77;;;9.02;;
5752;SDS011;2901;42.140;24.760;2024-02-23T12:15:47;10.20;;;9.40;;
5752;SDS011;2901;42.140;24.760;2024-02-23T12:18:13;10.02;;;9.25;;
5752;SDS011;2901;42.140;24.760;2024-02-23T12:20:39;10.02;;;9.05;;
5752;SDS011;2901;42.140;24.760;2024-02-23T12:23:05;12.27;;;9.40;;
5752;SDS011;2901;42.140;24.760;2024-02-23T12:25:33;9.07;;;8.25;;
5752;SDS011;2901;42.140;24.760;2024-02-23T12:27:59;10.35;;;9.55;;
5752;SDS011;2901;42.140;24.760;2024-02-23T12:30:28;10.07;;;9.07;;
5752;SDS011;2901;42.140;24.760;2024-02-23T12:33:03;10.18;;;9.43;;
5752;SDS011;2901;42.140;24.760;2024-02-23T12:35:29;9.95;;;9.25;;
5752;SDS011;2901;42.140;24.760;2024-02-23T12:37:55;10.43;;;9.63;;
5752;SDS011;2901;42.140;24.760;2024-02-23T12:40:20;9.73;;;8.95;;
5752;SDS011;2901;42.140;24.760;2024-02-23T12:42:45;9.95;;;9.13;;
5752;SDS011;2901;42.140;24.760;2024-02-23T12:45:13;9.23;;;8.60;;
5752;SDS011;2901;42.140;24.760;2024-02-23T12:47:39;9.57;;;8.98;;
5752;SDS011;2901;42.140;24.760;2024-02-23T12:50:04;10.20;;;9.60;;
5752;SDS011;2901;42.140;24.760;2024-02-23T12:52:30;9.75;;;8.90;;
5752;SDS011;2901;42.140;24.760;2024-02-23T12:54:56;9.30;;;8.73;;
5752;SDS011;2901;42.140;24.760;2024-02-23T12:57:21;10.18;;;9.38;;
5752;SDS011;2901;42.140;24.760;2024-02-23T12:59:47;12.77;;;11.02;;
5752;SDS011;2901;42.140;24.760;2024-02-23T13:02:12;10.98;;;9.55;;
5752;SDS011;2901;42.140;24.760;2024-02-23T13:04:37;9.82;;;8.93;;
5752;SDS011;2901;42.140;24.760;2024-02-23T13:07:03;9.65;;;8.85;;
5752;SDS011;2901;42.140;24.760;2024-02-23T13:09:28;13.90;;;8.30;;
5752;SDS011;2901;42.140;24.760;2024-02-23T13:11:54;9.13;;;7.85;;
5752;SDS011;2901;42.140;24.760;2024-02-23T13:14:19;8.77;;;7.88;;
5752;SDS011;2901;42.140;24.760;2024-02-23T13:16:44;8.68;;;7.97;;
5752;SDS011;2901;42.140;24.760;2024-02-23T13:19:10;7.68;;;6.97;;
5752;SDS011;2901;42.140;24.760;2024-02-23T13:21:35;8.13;;;7.63;;
5752;SDS011;2901;42.140;24.760;2024-02-23T13:24:01;8.20;;;7.40;;
5752;SDS011;2901;42.140;24.760;2024-02-23T13:26:26;8.10;;;7.45;;
5752;SDS011;2901;42.140;24.760;2024-02-23T13:28:51;8.98;;;8.15;;
5752;SDS011;2901;42.140;24.760;2024-02-23T13:31:17;8.50;;;7.68;;
5752;SDS011;2901;42.140;24.760;2024-02-23T13:33:42;8.57;;;6.65;;
5752;SDS011;2901;42.140;24.760;2024-02-23T13:36:08;7.03;;;6.63;;
5752;SDS011;2901;42.140;24.760;2024-02-23T13:38:34;8.07;;;7.63;;
5752;SDS011;2901;42.140;24.760;2024-02-23T13:41:03;8.27;;;7.47;;
5752;SDS011;2901;42.140;24.760;2024-02-23T13:43:29;7.10;;;6.68;;
5752;SDS011;2901;42.140;24.760;2024-02-23T13:45:55;7.50;;;6.93;;
5752;SDS011;2901;42.140;24.760;2024-02-23T13:48:21;8.02;;;7.55;;
5752;SDS011;2901;42.140;24.760;2024-02-23T13:50:48;8.57;;;6.75;;
5752;SDS011;2901;42.140;24.760;2024-02-23T13:53:14;7.72;;;7.00;;
5752;SDS011;2901;42.140;24.760;2024-02-23T13:55:40;7.53;;;7.03;;
5752;SDS011;2901;42.140;24.760;2024-02-23T13:58:07;8.05;;;7.53;;
5752;SDS011;2901;42.140;24.760;2024-02-23T14:00:33;7.03;;;6.63;;
5752;SDS011;2901;42.140;24.760;2024-02-23T14:02:58;7.97;;;7.28;;
5752;SDS011;2901;42.140;24.760;2024-02-23T14:05:24;8.48;;;7.75;;
5752;SDS011;2901;42.140;24.760;2024-02-23T14:07:50;8.18;;;7.57;;
5752;SDS011;2901;42.140;24.760;2024-02-23T14:10:16;8.02;;;7.40;;
5752;SDS011;2901;42.140;24.760;2024-02-23T14:12:42;7.95;;;7.45;;
5752;SDS011;2901;42.140;24.760;2024-02-23T14:15:08;8.30;;;7.70;;
5752;SDS011;2901;42.140;24.760;2024-02-23T14:17:35;9.10;;;8.20;;
5752;SDS011;2901;42.140;24.760;2024-02-23T14:20:01;9.02;;;8.32;;
5752;SDS011;2901;42.140;24.760;2024-02-23T14:22:27;8.43;;;7.88;;
5752;SDS011;2901;42.140;24.760;2024-02-23T14:24:53;8.32;;;7.63;;
5752;SDS011;2901;42.140;24.760;2024-02-23T14:27:19;8.07;;;7.57;;
5752;SDS011;2901;42.140;24.760;2024-02-23T14:29:44;8.07;;;7.55;;
5752;SDS011;2901;42.140;24.760;2024-02-23T14:32:10;8.85;;;8.00;;
5752;SDS011;2901;42.140;24.760;2024-02-23T14:34:41;8.10;;;7.57;;
5752;SDS011;2901;42.140;24.760;2024-02-23T14:37:06;12.63;;;11.05;;